createdAt,value
2022-11-29T00:00:54.095Z,5.80
2022-11-29T00:02:56.847Z,5.80
2022-11-29T00:04:59.648Z,5.80
2022-11-29T00:07:02.530Z,5.80
2022-11-29T00:09:07.131Z,5.80
2022-11-29T00:11:11.786Z,5.80
2022-11-29T00:13:15.030Z,5.80
2022-11-29T00:15:18.242Z,5.80
2022-11-29T00:17:21.203Z,5.80
2022-11-29T00:20:02.940Z,5.80
2022-11-29T00:23:09.155Z,5.90
2022-11-29T00:25:38.793Z,5.90
2022-11-29T00:28:02.802Z,5.90
2022-11-29T00:31:00.709Z,5.90
2022-11-29T00:33:22.977Z,5.90
2022-11-29T00:36:06.309Z,5.90
2022-11-29T00:38:27.897Z,5.90
2022-11-29T00:44:00.752Z,5.90
2022-11-29T00:46:17.180Z,5.80
2022-11-29T00:48:46.391Z,5.90
2022-11-29T00:51:03.639Z,5.80
2022-11-29T00:53:06.401Z,5.90
2022-11-29T00:55:09.980Z,5.90
2022-11-29T00:57:12.723Z,5.90
2022-11-29T00:59:15.676Z,5.90
2022-11-29T01:01:20.239Z,5.90
2022-11-29T01:03:23.368Z,5.90
2022-11-29T01:05:26.127Z,5.90
2022-11-29T01:07:28.915Z,5.90
2022-11-29T01:09:31.691Z,5.90
2022-11-29T01:11:34.883Z,5.90
2022-11-29T01:13:37.762Z,5.90
2022-11-29T01:15:41.142Z,5.90
2022-11-29T01:17:46.399Z,5.90
2022-11-29T01:19:50.966Z,5.90
2022-11-29T01:21:54.137Z,5.90
2022-11-29T01:23:57.376Z,5.90
2022-11-29T01:26:01.901Z,5.90
2022-11-29T01:28:04.727Z,5.90
2022-11-29T01:30:09.833Z,5.90
2022-11-29T01:32:13.185Z,5.90
2022-11-29T01:34:17.355Z,5.90
2022-11-29T01:36:20.156Z,5.90
2022-11-29T01:38:23.775Z,5.90
2022-11-29T01:40:26.455Z,5.90
2022-11-29T01:42:29.320Z,5.90
2022-11-29T01:45:01.050Z,5.90
2022-11-29T01:47:03.745Z,5.90
2022-11-29T01:49:10.493Z,5.90
2022-11-29T01:51:14.796Z,5.90
2022-11-29T01:53:17.762Z,5.90
2022-11-29T01:55:20.695Z,5.90
2022-11-29T01:57:24.481Z,5.90
2022-11-29T01:59:30.042Z,5.90
2022-11-29T02:01:34.560Z,5.90
2022-11-29T02:03:37.386Z,5.90
2022-11-29T02:05:42.981Z,5.90
2022-11-29T02:07:52.145Z,5.90
2022-11-29T02:09:54.943Z,5.90
2022-11-29T02:12:11.363Z,5.90
2022-11-29T02:14:28.035Z,5.90
2022-11-29T02:16:38.734Z,5.90
2022-11-29T02:18:51.666Z,5.90
2022-11-29T02:21:12.685Z,5.90
2022-11-29T02:23:44.022Z,5.90
2022-11-29T02:26:01.754Z,5.90
2022-11-29T02:28:45.346Z,5.90
2022-11-29T02:31:01.997Z,5.90
2022-11-29T02:33:53.496Z,5.90
2022-11-29T02:36:35.135Z,5.90
2022-11-29T02:38:52.696Z,5.90
2022-11-29T02:41:14.618Z,5.90
2022-11-29T02:43:37.710Z,5.90
2022-11-29T02:45:51.353Z,6.00
2022-11-29T02:48:09.134Z,5.90
2022-11-29T02:50:35.710Z,5.90
2022-11-29T02:52:47.534Z,5.90
2022-11-29T02:54:57.689Z,5.90
2022-11-29T02:57:08.108Z,5.90
2022-11-29T02:59:17.845Z,5.90
2022-11-29T03:01:28.083Z,5.90
2022-11-29T03:03:38.060Z,5.90
2022-11-29T03:05:47.023Z,5.90
2022-11-29T03:07:59.609Z,5.90
2022-11-29T03:10:10.033Z,5.90
2022-11-29T03:12:22.343Z,5.90
2022-11-29T03:14:27.615Z,5.90
2022-11-29T03:16:43.025Z,5.90
2022-11-29T03:18:59.238Z,5.90
2022-11-29T03:21:11.066Z,5.90
2022-11-29T03:23:25.008Z,6.00
2022-11-29T03:25:33.955Z,6.00
2022-11-29T03:27:42.898Z,6.00
2022-11-29T03:29:51.351Z,6.00
2022-11-29T03:32:01.735Z,6.00
2022-11-29T03:34:13.623Z,6.00
2022-11-29T03:36:26.458Z,6.00
2022-11-29T03:38:40.029Z,6.00
2022-11-29T03:40:51.000Z,6.00
2022-11-29T03:42:59.554Z,6.00
2022-11-29T03:45:09.222Z,6.00
2022-11-29T03:47:16.082Z,6.00
2022-11-29T03:49:24.903Z,6.00
2022-11-29T03:51:42.189Z,6.00
2022-11-29T03:53:52.899Z,6.00
2022-11-29T03:56:00.577Z,6.00
2022-11-29T03:58:15.630Z,6.00
2022-11-29T04:00:19.918Z,6.00
2022-11-29T04:02:44.667Z,6.00
2022-11-29T04:05:18.697Z,6.00
2022-11-29T04:07:40.145Z,6.00
2022-11-29T04:10:08.996Z,6.00
2022-11-29T04:12:46.975Z,6.00
2022-11-29T04:15:24.315Z,6.00
2022-11-29T04:18:06.794Z,6.00
2022-11-29T04:20:47.840Z,6.00
2022-11-29T04:23:13.695Z,6.00
2022-11-29T04:25:39.350Z,6.00
2022-11-29T04:27:54.400Z,6.00
2022-11-29T04:30:10.709Z,6.00
2022-11-29T04:32:34.707Z,6.00
2022-11-29T04:35:14.494Z,6.00
2022-11-29T04:37:33.987Z,6.00
2022-11-29T04:39:51.485Z,6.00
2022-11-29T04:42:27.443Z,6.00
2022-11-29T04:44:58.562Z,6.00
2022-11-29T04:47:22.175Z,6.00
2022-11-29T04:49:52.381Z,6.00
2022-11-29T04:52:09.208Z,6.00
2022-11-29T04:54:24.041Z,6.00
2022-11-29T04:56:33.952Z,6.00
2022-11-29T04:58:43.162Z,6.00
2022-11-29T05:00:55.561Z,6.00
2022-11-29T05:03:00.806Z,6.00
2022-11-29T05:05:14.141Z,6.00
2022-11-29T05:07:27.843Z,6.00
2022-11-29T05:09:41.468Z,6.00
2022-11-29T05:11:55.000Z,6.00
2022-11-29T05:14:09.442Z,6.00
2022-11-29T05:16:32.673Z,6.00
2022-11-29T05:19:04.181Z,6.00
2022-11-29T05:21:15.298Z,6.00
2022-11-29T05:23:33.410Z,6.00
2022-11-29T05:25:44.284Z,6.00
2022-11-29T05:27:52.027Z,6.00
2022-11-29T05:30:03.603Z,6.00
2022-11-29T05:32:23.896Z,6.00
2022-11-29T05:34:55.241Z,6.00
2022-11-29T05:37:09.137Z,6.00
2022-11-29T05:39:30.282Z,6.00
2022-11-29T05:41:58.788Z,6.00
2022-11-29T05:44:10.285Z,6.00
2022-11-29T05:46:22.446Z,6.00
2022-11-29T05:48:32.350Z,6.00
2022-11-29T05:50:39.013Z,6.00
2022-11-29T05:52:50.369Z,6.00
2022-11-29T05:55:11.546Z,6.00
2022-11-29T05:57:22.690Z,6.10
2022-11-29T05:59:29.582Z,6.10
2022-11-29T06:01:45.679Z,6.10
2022-11-29T06:03:57.728Z,6.10
2022-11-29T06:06:07.973Z,6.10
2022-11-29T06:08:22.175Z,6.10
2022-11-29T06:10:29.374Z,6.10
2022-11-29T06:12:35.900Z,6.10
2022-11-29T06:15:00.535Z,6.10
2022-11-29T06:17:19.523Z,6.10
2022-11-29T06:19:43.955Z,6.10
2022-11-29T06:21:56.057Z,6.10
2022-11-29T06:24:12.663Z,6.10
2022-11-29T06:26:34.184Z,6.10
2022-11-29T06:28:46.283Z,6.20
2022-11-29T06:31:00.735Z,6.10
2022-11-29T06:33:14.967Z,6.10
2022-11-29T06:35:34.834Z,6.20
2022-11-29T06:37:41.208Z,6.10
2022-11-29T06:39:44.235Z,6.20
2022-11-29T06:41:48.755Z,6.10
2022-11-29T06:43:53.037Z,6.10
2022-11-29T06:46:01.821Z,6.10
2022-11-29T06:48:10.911Z,6.10
2022-11-29T06:50:31.849Z,6.10
2022-11-29T06:52:42.778Z,6.10
2022-11-29T06:55:01.097Z,6.10
2022-11-29T06:57:10.506Z,6.10
2022-11-29T06:59:27.466Z,6.10
2022-11-29T07:01:40.113Z,6.10
2022-11-29T07:03:55.506Z,6.20
2022-11-29T07:05:59.191Z,6.20
2022-11-29T07:08:04.343Z,6.20
2022-11-29T07:10:12.060Z,6.20
2022-11-29T07:12:18.747Z,6.20
2022-11-29T07:14:22.254Z,6.20
2022-11-29T07:16:30.069Z,6.20
2022-11-29T07:18:39.929Z,6.20
2022-11-29T07:20:54.385Z,6.20
2022-11-29T07:23:04.784Z,6.20
2022-11-29T07:25:21.040Z,6.20
2022-11-29T07:27:30.611Z,6.20
2022-11-29T07:29:42.798Z,6.20
2022-11-29T07:32:02.395Z,6.20
2022-11-29T07:34:13.618Z,6.20
2022-11-29T07:36:26.632Z,6.20
2022-11-29T07:38:53.464Z,6.20
2022-11-29T07:41:02.288Z,6.30
2022-11-29T07:43:16.469Z,6.20
2022-11-29T07:45:25.029Z,6.20
2022-11-29T07:47:31.311Z,6.30
2022-11-29T07:49:38.154Z,6.30
2022-11-29T07:51:42.507Z,6.30
2022-11-29T07:53:45.974Z,6.30
2022-11-29T07:55:50.492Z,6.30
2022-11-29T07:57:53.538Z,6.30
2022-11-29T07:59:56.198Z,6.30
2022-11-29T08:02:00.024Z,6.30
2022-11-29T08:04:02.799Z,6.30
2022-11-29T08:06:06.278Z,6.30
2022-11-29T08:08:10.706Z,6.30
2022-11-29T08:10:17.501Z,6.30
2022-11-29T08:12:20.491Z,6.30
2022-11-29T08:14:23.401Z,6.30
2022-11-29T08:16:26.450Z,6.30
2022-11-29T08:18:29.134Z,6.30
2022-11-29T08:20:31.894Z,6.40
2022-11-29T08:22:34.679Z,6.40
2022-11-29T08:24:38.709Z,6.40
2022-11-29T08:26:41.392Z,6.40
2022-11-29T08:28:44.562Z,6.40
2022-11-29T08:30:47.340Z,6.40
2022-11-29T08:32:51.748Z,6.40
2022-11-29T08:34:54.646Z,6.40
2022-11-29T08:36:57.360Z,6.40
2022-11-29T08:39:08.887Z,6.50
2022-11-29T08:41:15.518Z,6.50
2022-11-29T08:43:18.416Z,6.50
2022-11-29T08:45:21.178Z,6.50
2022-11-29T08:47:38.762Z,6.50
2022-11-29T08:50:01.042Z,6.50
2022-11-29T08:52:21.702Z,6.50
2022-11-29T08:54:24.611Z,6.50
2022-11-29T08:58:51.617Z,6.50
2022-11-29T09:00:54.996Z,6.60
2022-11-29T09:03:17.925Z,6.60
2022-11-29T09:05:20.882Z,6.60
2022-11-29T09:07:23.808Z,6.60
2022-11-29T09:09:26.530Z,6.60
2022-11-29T09:11:32.003Z,6.60
2022-11-29T09:13:34.862Z,6.60
2022-11-29T09:15:38.137Z,6.60
2022-11-29T09:17:40.871Z,6.60
2022-11-29T09:19:43.574Z,6.60
2022-11-29T09:21:46.293Z,6.60
2022-11-29T09:23:49.014Z,6.70
2022-11-29T09:25:51.802Z,6.70
2022-11-29T09:27:58.395Z,6.70
2022-11-29T09:30:01.559Z,6.70
2022-11-29T09:32:04.321Z,6.80
2022-11-29T09:34:08.830Z,6.80
2022-11-29T09:36:12.151Z,6.80
2022-11-29T09:38:15.451Z,6.80
2022-11-29T09:40:22.175Z,6.80
2022-11-29T09:42:42.849Z,6.90
2022-11-29T09:44:56.859Z,6.90
2022-11-29T09:47:14.330Z,6.90
2022-11-29T09:49:56.108Z,7.00
2022-11-29T09:52:07.461Z,7.00
2022-11-29T09:54:23.929Z,7.10
2022-11-29T09:56:35.434Z,7.20
2022-11-29T09:58:43.617Z,7.30
2022-11-29T10:00:51.507Z,7.30
2022-11-29T10:02:57.902Z,7.40
2022-11-29T10:05:07.916Z,7.40
2022-11-29T10:07:18.656Z,7.50
2022-11-29T10:09:29.527Z,7.50
2022-11-29T10:11:41.849Z,7.50
2022-11-29T10:13:48.162Z,7.50
2022-11-29T10:15:55.389Z,7.50
2022-11-29T10:18:04.438Z,7.50
2022-11-29T10:20:13.555Z,7.50
2022-11-29T10:22:22.138Z,7.40
2022-11-29T10:24:27.828Z,7.40
2022-11-29T10:26:34.954Z,7.40
2022-11-29T10:28:38.996Z,7.40
2022-11-29T10:30:42.798Z,7.40
2022-11-29T10:32:51.251Z,7.30
2022-11-29T10:34:57.554Z,7.30
2022-11-29T10:37:03.054Z,7.30
2022-11-29T10:39:14.579Z,7.30
2022-11-29T10:41:22.305Z,7.40
2022-11-29T10:43:25.786Z,7.50
2022-11-29T10:45:31.070Z,7.50
2022-11-29T10:47:34.098Z,7.60
2022-11-29T10:49:40.305Z,7.60
2022-11-29T10:51:43.664Z,7.70
2022-11-29T10:53:47.334Z,7.70
2022-11-29T10:55:56.176Z,7.70
2022-11-29T10:58:14.516Z,7.80
2022-11-29T11:00:18.040Z,7.80
2022-11-29T11:02:21.608Z,7.80
2022-11-29T11:04:29.757Z,7.80
2022-11-29T11:06:47.180Z,7.80
2022-11-29T11:08:53.567Z,7.80
2022-11-29T11:11:01.663Z,7.90
2022-11-29T11:13:21.341Z,7.90
2022-11-29T11:15:28.716Z,8.00
2022-11-29T11:17:33.707Z,8.00
2022-11-29T11:19:37.018Z,8.10
2022-11-29T11:21:40.222Z,8.10
2022-11-29T11:23:54.580Z,8.10
2022-11-29T11:26:00.962Z,8.00
2022-11-29T11:28:17.936Z,8.00
2022-11-29T11:30:23.806Z,8.00
2022-11-29T11:32:26.877Z,7.90
2022-11-29T11:34:34.066Z,7.90
2022-11-29T11:36:36.874Z,7.90
2022-11-29T11:38:41.778Z,7.90
2022-11-29T11:40:46.331Z,7.90
2022-11-29T11:42:49.062Z,7.90
2022-11-29T11:44:53.330Z,7.90
2022-11-29T11:46:56.778Z,7.90
2022-11-29T11:49:00.208Z,7.90
2022-11-29T11:51:06.202Z,8.00
2022-11-29T11:53:20.760Z,8.00
2022-11-29T11:55:30.602Z,8.10
2022-11-29T11:57:35.458Z,8.10
2022-11-29T11:59:38.265Z,8.20
2022-11-29T12:01:40.950Z,8.20
2022-11-29T12:03:53.413Z,8.20
2022-11-29T12:06:05.041Z,8.20
2022-11-29T12:08:14.051Z,8.20
2022-11-29T12:10:23.319Z,8.20
2022-11-29T12:12:28.325Z,8.20
2022-11-29T12:14:41.986Z,8.30
2022-11-29T12:16:47.320Z,8.30
2022-11-29T12:18:52.868Z,8.30
2022-11-29T12:21:00.834Z,8.30
2022-11-29T12:23:28.159Z,8.30
2022-11-29T12:25:35.556Z,8.20
2022-11-29T12:27:38.586Z,8.20
2022-11-29T12:29:42.958Z,8.20
2022-11-29T12:31:58.372Z,8.20
2022-11-29T12:34:22.019Z,8.10
2022-11-29T12:36:35.910Z,8.10
2022-11-29T12:38:57.449Z,8.10
2022-11-29T12:41:19.367Z,8.10
2022-11-29T12:43:34.913Z,8.20
2022-11-29T12:45:49.065Z,8.20
2022-11-29T12:48:03.632Z,8.20
2022-11-29T12:50:24.045Z,8.20
2022-11-29T12:52:33.923Z,8.10
2022-11-29T12:54:51.056Z,8.10
2022-11-29T12:57:03.361Z,8.10
2022-11-29T12:59:20.411Z,8.00
2022-11-29T13:01:34.943Z,8.00
2022-11-29T13:03:45.112Z,7.90
2022-11-29T13:06:02.698Z,7.90
2022-11-29T13:08:19.151Z,7.90
2022-11-29T13:10:29.872Z,7.90
2022-11-29T13:12:38.611Z,7.90
2022-11-29T13:14:49.953Z,7.90
2022-11-29T13:17:05.324Z,8.00
2022-11-29T13:19:16.024Z,8.00
2022-11-29T13:21:27.282Z,8.00
2022-11-29T13:23:45.570Z,8.10
2022-11-29T13:26:11.472Z,8.10
2022-11-29T13:28:24.695Z,8.10
2022-11-29T13:30:27.582Z,8.10
2022-11-29T13:32:38.463Z,8.10
2022-11-29T13:34:47.184Z,8.10
2022-11-29T13:37:06.294Z,8.20
2022-11-29T13:39:19.284Z,8.20
2022-11-29T13:41:31.205Z,8.20
2022-11-29T13:43:40.582Z,8.30
2022-11-29T13:45:48.329Z,8.30
2022-11-29T13:47:54.597Z,8.30
2022-11-29T13:50:03.478Z,8.40
2022-11-29T13:52:11.123Z,8.40
2022-11-29T13:54:28.993Z,8.40
2022-11-29T13:56:42.830Z,8.30
2022-11-29T13:58:45.557Z,8.40
2022-11-29T14:00:51.930Z,8.40
2022-11-29T14:03:01.945Z,8.30
2022-11-29T14:05:07.776Z,8.30
2022-11-29T14:07:13.694Z,8.30
2022-11-29T14:09:24.760Z,8.20
2022-11-29T14:11:32.569Z,8.20
2022-11-29T14:13:47.011Z,8.20
2022-11-29T14:15:56.455Z,8.20
2022-11-29T14:18:02.782Z,8.20
2022-11-29T14:20:51.232Z,8.20
2022-11-29T14:23:16.273Z,8.10
2022-11-29T14:27:58.861Z,8.10
2022-11-29T14:30:01.619Z,8.10
2022-11-29T14:32:04.649Z,8.00
2022-11-29T14:34:13.507Z,8.00
2022-11-29T14:36:32.168Z,8.00
2022-11-29T14:38:44.058Z,8.00
2022-11-29T14:40:53.348Z,8.00
2022-11-29T14:42:56.308Z,8.00
2022-11-29T14:45:01.344Z,8.00
2022-11-29T14:47:07.326Z,8.00
2022-11-29T14:49:22.851Z,8.00
2022-11-29T14:51:28.522Z,8.00
2022-11-29T14:53:35.276Z,8.00
2022-11-29T14:55:39.719Z,7.90
2022-11-29T14:58:13.860Z,7.90
2022-11-29T15:00:17.579Z,7.90
2022-11-29T15:02:33.679Z,7.80
2022-11-29T15:04:39.918Z,7.80
2022-11-29T15:06:48.750Z,7.80
2022-11-29T15:09:02.898Z,7.70
2022-11-29T15:11:12.862Z,7.60
2022-11-29T15:13:23.061Z,7.60
2022-11-29T15:15:37.314Z,7.60
2022-11-29T15:17:49.789Z,7.50
2022-11-29T15:20:32.061Z,7.50
2022-11-29T15:22:47.293Z,7.50
2022-11-29T15:24:55.738Z,7.40
2022-11-29T15:26:59.812Z,7.40
2022-11-29T15:29:16.924Z,7.40
2022-11-29T15:31:21.454Z,7.40
2022-11-29T15:33:26.499Z,7.30
2022-11-29T15:35:31.157Z,7.30
2022-11-29T15:37:44.330Z,7.30
2022-11-29T15:39:47.035Z,7.30
2022-11-29T15:41:49.759Z,7.20
2022-11-29T15:43:54.728Z,7.20
2022-11-29T15:45:59.311Z,7.20
2022-11-29T15:48:14.719Z,7.10
2022-11-29T15:50:26.934Z,7.10
2022-11-29T15:52:35.722Z,7.00
2022-11-29T15:54:43.731Z,7.00
2022-11-29T15:56:48.726Z,7.00
2022-11-29T15:58:58.541Z,7.00
2022-11-29T16:01:02.457Z,6.90
2022-11-29T16:03:08.387Z,6.90
2022-11-29T16:05:16.643Z,6.90
2022-11-29T16:07:21.455Z,6.90
2022-11-29T16:09:31.275Z,6.90
2022-11-29T16:11:34.210Z,6.90
2022-11-29T16:13:39.404Z,6.80
2022-11-29T16:15:42.412Z,6.80
2022-11-29T16:17:45.104Z,6.80
2022-11-29T16:19:49.134Z,6.80
2022-11-29T16:22:03.752Z,6.80
2022-11-29T16:24:14.681Z,6.70
2022-11-29T16:26:22.292Z,6.70
2022-11-29T16:28:28.782Z,6.70
2022-11-29T16:30:33.258Z,6.70
2022-11-29T16:32:38.370Z,6.70
2022-11-29T16:34:44.534Z,6.70
2022-11-29T16:36:47.759Z,6.70
2022-11-29T16:38:52.767Z,6.60
2022-11-29T16:41:04.387Z,6.60
2022-11-29T16:43:23.528Z,6.60
2022-11-29T16:45:34.511Z,6.70
2022-11-29T16:47:57.836Z,6.70
2022-11-29T16:50:19.324Z,6.70
2022-11-29T16:52:26.277Z,6.70
2022-11-29T16:54:33.194Z,6.70
2022-11-29T16:56:39.925Z,6.70
2022-11-29T16:59:20.661Z,6.70
2022-11-29T17:01:17.907Z,6.70
2022-11-29T17:03:21.036Z,6.70
2022-11-29T17:05:23.946Z,6.70
2022-11-29T17:07:29.592Z,6.70
2022-11-29T17:09:34.082Z,6.70
2022-11-29T17:11:36.828Z,6.70
2022-11-29T17:13:40.133Z,6.70
2022-11-29T17:15:44.475Z,6.60
2022-11-29T17:17:50.373Z,6.60
2022-11-29T17:19:53.269Z,6.60
2022-11-29T17:21:56.186Z,6.60
2022-11-29T17:23:59.053Z,6.60
2022-11-29T17:26:02.871Z,6.60
2022-11-29T17:28:05.895Z,6.60
2022-11-29T17:30:11.158Z,6.60
2022-11-29T17:32:15.422Z,6.60
2022-11-29T17:34:18.378Z,6.60
2022-11-29T17:36:22.231Z,6.60
2022-11-29T17:38:25.114Z,6.60
2022-11-29T17:40:28.474Z,6.60
2022-11-29T17:42:31.408Z,6.60
2022-11-29T17:44:35.698Z,6.50
2022-11-29T17:46:38.793Z,6.60
2022-11-29T17:48:46.040Z,6.60
2022-11-29T17:50:48.912Z,6.60
2022-11-29T17:52:51.638Z,6.60
2022-11-29T17:54:54.503Z,6.60
2022-11-29T17:56:57.191Z,6.70
2022-11-29T17:59:02.106Z,6.70
2022-11-29T18:01:08.136Z,6.70
2022-11-29T18:03:10.854Z,6.70
2022-11-29T18:05:15.123Z,6.70
2022-11-29T18:07:18.348Z,6.70
2022-11-29T18:09:21.093Z,6.70
2022-11-29T18:11:25.597Z,6.70
2022-11-29T18:13:28.956Z,6.70
2022-11-29T18:15:33.848Z,6.70
2022-11-29T18:17:36.530Z,6.70
2022-11-29T18:19:39.470Z,6.70
2022-11-29T18:21:43.689Z,6.70
2022-11-29T18:23:46.467Z,6.70
2022-11-29T18:25:56.997Z,6.70
2022-11-29T18:27:59.663Z,6.70
2022-11-29T18:30:02.602Z,6.70
2022-11-29T18:32:07.180Z,6.70
2022-11-29T18:34:11.381Z,6.70
2022-11-29T18:36:15.927Z,6.70
2022-11-29T18:38:19.966Z,6.70
2022-11-29T18:40:23.795Z,6.70
2022-11-29T18:42:26.464Z,6.70
2022-11-29T18:44:30.339Z,6.70
2022-11-29T18:46:35.413Z,6.70
2022-11-29T18:48:39.491Z,6.70
2022-11-29T18:50:42.324Z,6.70
2022-11-29T18:52:45.022Z,6.70
2022-11-29T18:54:49.054Z,6.70
2022-11-29T18:56:51.985Z,6.70
2022-11-29T18:58:58.509Z,6.60
2022-11-29T19:01:06.248Z,6.60
2022-11-29T19:03:09.379Z,6.60
2022-11-29T19:05:12.335Z,6.60
2022-11-29T19:07:15.389Z,6.60
2022-11-29T19:09:21.348Z,6.60
2022-11-29T19:11:26.927Z,6.50
2022-11-29T19:13:30.018Z,6.50
2022-11-29T19:15:33.032Z,6.50
2022-11-29T19:17:41.662Z,6.50
2022-11-29T19:19:46.266Z,6.50
2022-11-29T19:21:49.352Z,6.40
2022-11-29T19:23:54.258Z,6.40
2022-11-29T19:26:03.117Z,6.40
2022-11-29T19:28:13.787Z,6.30
2022-11-29T19:30:17.681Z,6.30
2022-11-29T19:32:20.702Z,6.20
2022-11-29T19:34:24.127Z,6.20
2022-11-29T19:36:29.230Z,6.20
2022-11-29T19:38:34.652Z,6.10
2022-11-29T19:40:40.230Z,6.10
2022-11-29T19:42:43.246Z,6.00
2022-11-29T19:45:15.229Z,6.00
2022-11-29T19:47:10.098Z,6.00
2022-11-29T19:49:13.344Z,5.90
2022-11-29T19:51:17.795Z,5.90
2022-11-29T19:53:20.880Z,6.00
2022-11-29T19:55:23.867Z,6.00
2022-11-29T19:57:26.815Z,6.00
2022-11-29T19:59:29.710Z,6.00
2022-11-29T20:01:41.206Z,6.00
2022-11-29T20:03:46.079Z,6.00
2022-11-29T20:05:55.989Z,6.00
2022-11-29T20:07:58.770Z,6.00
2022-11-29T20:10:01.650Z,6.00
2022-11-29T20:12:04.591Z,6.00
2022-11-29T20:14:08.691Z,6.00
2022-11-29T20:16:13.363Z,5.90
2022-11-29T20:18:17.536Z,5.90
2022-11-29T20:20:21.372Z,5.90
2022-11-29T20:22:24.466Z,5.90
2022-11-29T20:24:34.869Z,5.80
2022-11-29T20:26:43.141Z,5.90
2022-11-29T20:28:47.295Z,5.80
2022-11-29T20:30:50.306Z,5.80
2022-11-29T20:32:53.253Z,5.80
2022-11-29T20:34:59.383Z,5.80
2022-11-29T20:37:35.877Z,5.90
2022-11-29T20:39:46.563Z,5.90
2022-11-29T20:42:00.153Z,5.90
2022-11-29T20:44:04.050Z,5.90
2022-11-29T20:46:07.435Z,5.90
2022-11-29T20:48:17.480Z,5.90
2022-11-29T20:50:24.298Z,6.00
2022-11-29T20:52:36.375Z,6.00
2022-11-29T20:54:39.211Z,6.00
2022-11-29T20:56:41.905Z,6.00
2022-11-29T20:58:44.595Z,6.00
2022-11-29T21:00:47.566Z,6.00
2022-11-29T21:02:50.645Z,6.00
2022-11-29T21:04:53.903Z,6.00
2022-11-29T21:06:57.951Z,6.00
2022-11-29T21:09:00.864Z,6.00
2022-11-29T21:11:06.178Z,6.00
2022-11-29T21:13:10.766Z,6.00
2022-11-29T21:15:15.352Z,6.00
2022-11-29T21:17:18.785Z,6.00
2022-11-29T21:19:26.530Z,6.00
2022-11-29T21:21:34.408Z,6.00
2022-11-29T21:23:53.101Z,6.10
2022-11-29T21:25:59.286Z,6.10
2022-11-29T21:28:02.500Z,6.10
2022-11-29T21:30:07.780Z,6.10
2022-11-29T21:32:22.118Z,6.10
2022-11-29T21:34:25.310Z,6.10
2022-11-29T21:36:28.340Z,6.10
2022-11-29T21:38:31.050Z,6.10
2022-11-29T21:40:35.435Z,6.10
2022-11-29T21:42:39.018Z,6.10
2022-11-29T21:44:41.700Z,6.20
2022-11-29T21:46:44.471Z,6.20
2022-11-29T21:48:47.559Z,6.20
2022-11-29T21:50:50.815Z,6.20
2022-11-29T21:52:53.546Z,6.20
2022-11-29T21:54:56.291Z,6.20
2022-11-29T21:57:00.678Z,6.20
2022-11-29T21:59:03.448Z,6.20
2022-11-29T22:01:08.018Z,6.20
2022-11-29T22:03:11.275Z,6.20
2022-11-29T22:05:14.701Z,6.20
2022-11-29T22:07:17.715Z,6.20
2022-11-29T22:09:20.462Z,6.20
2022-11-29T22:11:32.012Z,6.20
2022-11-29T22:13:36.726Z,6.20
2022-11-29T22:15:39.610Z,6.20
2022-11-29T22:17:42.504Z,6.10
2022-11-29T22:19:45.203Z,6.10
2022-11-29T22:21:49.905Z,6.10
2022-11-29T22:23:53.195Z,6.10
2022-11-29T22:25:55.859Z,6.00
2022-11-29T22:27:58.557Z,6.00
2022-11-29T22:30:02.895Z,6.00
2022-11-29T22:32:06.108Z,6.00
2022-11-29T22:34:09.010Z,6.00
2022-11-29T22:36:13.701Z,6.00
2022-11-29T22:38:19.489Z,5.90
2022-11-29T22:40:22.400Z,6.00
2022-11-29T22:42:25.575Z,5.90
2022-11-29T22:44:28.275Z,5.90
2022-11-29T22:46:32.909Z,5.90
2022-11-29T22:48:38.860Z,5.90
2022-11-29T22:50:41.932Z,5.80
2022-11-29T22:52:44.642Z,5.80
2022-11-29T22:54:47.603Z,5.80
2022-11-29T22:56:50.561Z,5.80
2022-11-29T22:58:54.003Z,5.80
2022-11-29T23:01:02.698Z,5.80
2022-11-29T23:03:07.133Z,5.80
2022-11-29T23:05:10.437Z,5.70
2022-11-29T23:07:13.183Z,5.80
2022-11-29T23:09:19.985Z,5.80
2022-11-29T23:11:24.981Z,5.80
2022-11-29T23:13:27.818Z,5.80
2022-11-29T23:15:30.833Z,5.80
2022-11-29T23:17:33.510Z,5.80
2022-11-29T23:19:37.650Z,5.80
2022-11-29T23:21:41.783Z,5.90
2022-11-29T23:23:45.003Z,5.90
2022-11-29T23:25:49.876Z,5.90
2022-11-29T23:27:53.888Z,5.90
2022-11-29T23:29:56.688Z,6.00
2022-11-29T23:32:00.733Z,6.00
2022-11-29T23:34:04.203Z,6.00
2022-11-29T23:36:10.619Z,6.00
2022-11-29T23:38:13.364Z,6.00
2022-11-29T23:40:16.384Z,6.00
2022-11-29T23:42:19.326Z,6.00
2022-11-29T23:44:22.099Z,6.10
2022-11-29T23:46:26.098Z,6.10
2022-11-29T23:48:28.801Z,6.10
2022-11-29T23:50:31.537Z,6.10
2022-11-29T23:52:35.755Z,6.10
2022-11-29T23:54:38.584Z,6.10
2022-11-29T23:56:41.452Z,6.10
2022-11-29T23:58:45.214Z,6.10
